Time;durP1;ratioP1;P1;durP2;ratioP2;P2;SDS_P1;SDS_P2;PMS_P1;PMS_P2;Temp;Humidity;BMP_temperature;BMP_pressure;BME280_temperature;BME280_humidity;BME280_pressure;Samples;Min_cycle;Max_cycle;Signal;HPM_P1;HPM_P2
2021/11/03 00:00:59;;;;;;;62.20;26.83;;;;;;;7.44;90.57;99329.06;5050240;28;20032;-38
2021/11/03 00:03:24;;;;;;;67.60;27.48;;;;;;;7.68;89.64;99344.72;5048983;28;20029;-39
2021/11/03 00:05:50;;;;;;;64.03;29.05;;;;;;;7.73;88.76;99336.97;5032241;28;20013;-38
2021/11/03 00:08:17;;;;;;;62.97;28.40;;;;;;;7.66;88.45;99342.25;5050322;28;20465;-38
2021/11/03 00:10:43;;;;;;;63.42;27.50;;;;;;;7.73;89.40;99342.28;5049150;28;20025;-39
2021/11/03 00:13:10;;;;;;;63.03;26.67;;;;;;;7.75;88.62;99351.69;5050367;28;20029;-39
2021/11/03 00:15:36;;;;;;;56.35;25.52;;;;;;;7.55;88.51;99348.88;5050251;28;20040;-39
2021/11/03 00:18:01;;;;;;;57.35;26.95;;;;;;;7.66;89.97;99352.84;5050597;28;20021;-39
2021/11/03 00:20:27;;;;;;;65.70;29.30;;;;;;;7.68;89.90;99353.47;5050149;28;20021;-39
2021/11/03 00:22:53;;;;;;;65.38;30.15;;;;;;;7.70;89.20;99363.88;5049132;28;20025;-39
2021/11/03 00:25:18;;;;;;;62.90;26.08;;;;;;;7.76;89.13;99361.25;5050298;28;20075;-39
2021/11/03 00:27:44;;;;;;;55.55;26.40;;;;;;;7.70;88.91;99358.56;5049643;28;20082;-39
2021/11/03 00:30:09;;;;;;;60.08;28.05;;;;;;;7.69;89.20;99363.06;5049235;28;20489;-39
2021/11/03 00:32:35;;;;;;;58.20;26.38;;;;;;;7.65;89.82;99367.09;5049835;28;20049;-39
2021/11/03 00:35:00;;;;;;;56.83;26.60;;;;;;;7.60;89.50;99372.16;5049767;28;20025;-39
2021/11/03 00:37:26;;;;;;;58.88;26.13;;;;;;;7.62;88.90;99376.25;5049719;28;20033;-39
2021/11/03 00:39:51;;;;;;;52.42;25.67;;;;;;;7.50;89.49;99374.31;5049905;28;20132;-39
2021/11/03 00:42:16;;;;;;;58.70;25.60;;;;;;;7.51;89.97;99368.00;5049661;28;20025;-39
2021/11/03 00:44:42;;;;;;;54.58;25.40;;;;;;;7.70;87.66;99372.63;5049890;28;20017;-39
2021/11/03 00:47:07;;;;;;;59.08;25.85;;;;;;;7.51;88.89;99378.59;5049872;28;20028;-37
2021/11/03 00:49:33;;;;;;;60.20;26.95;;;;;;;7.55;88.25;99379.84;5049640;28;20464;-37
2021/11/03 00:51:58;;;;;;;54.17;25.00;;;;;;;7.54;89.05;99383.50;5049540;28;20028;-38
2021/11/03 00:54:24;;;;;;;57.15;26.20;;;;;;;7.68;88.44;99387.09;5049932;28;20032;-38
2021/11/03 00:56:50;;;;;;;60.80;26.73;;;;;;;7.67;88.84;99375.66;5049705;28;20021;-39
2021/11/03 00:59:15;;;;;;;59.25;27.20;;;;;;;7.75;87.84;99375.53;5049339;28;20032;-39
2021/11/03 01:01:41;;;;;;;58.05;26.30;;;;;;;7.65;88.80;99388.25;5049579;28;20116;-38
2021/11/03 01:04:06;;;;;;;57.58;26.65;;;;;;;7.53;88.81;99385.34;5049310;28;20071;-38
2021/11/03 01:06:32;;;;;;;55.95;27.13;;;;;;;7.51;88.37;99381.25;5049573;28;20480;-38
2021/11/03 01:08:57;;;;;;;59.72;26.95;;;;;;;7.67;88.52;99383.59;5049863;28;20078;-38
2021/11/03 01:11:23;;;;;;;59.17;26.95;;;;;;;7.64;88.45;99379.50;5049357;28;20025;-38
2021/11/03 01:13:49;;;;;;;58.05;26.70;;;;;;;7.50;89.06;99392.84;5049471;28;20124;-38
2021/11/03 01:16:14;;;;;;;57.25;27.98;;;;;;;7.56;88.90;99400.84;5050220;28;20025;-38
2021/11/03 01:18:40;;;;;;;58.38;27.70;;;;;;;7.71;87.80;99402.56;5049956;28;20100;-38
2021/11/03 01:21:05;;;;;;;55.42;26.92;;;;;;;7.43;88.06;99393.63;5050052;28;20036;-38
2021/11/03 01:23:31;;;;;;;54.05;26.77;;;;;;;7.31;88.42;99399.59;5050204;28;20021;-38
2021/11/03 01:25:56;;;;;;;57.92;26.73;;;;;;;7.33;87.95;99402.88;5050189;28;20017;-38
2021/11/03 01:28:22;;;;;;;53.70;26.50;;;;;;;7.16;89.05;99402.31;5050276;28;20021;-38
2021/11/03 01:30:47;;;;;;;58.60;26.67;;;;;;;7.22;88.58;99410.34;5050254;28;20028;-38
2021/11/03 01:33:14;;;;;;;53.85;26.55;;;;;;;7.35;87.74;99419.38;5050067;28;20052;-38
2021/11/03 01:35:40;;;;;;;46.08;24.10;;;;;;;7.26;88.05;99412.63;5050208;28;20587;-38
2021/11/03 01:38:05;;;;;;;46.35;23.85;;;;;;;6.99;88.24;99413.16;5050568;28;20037;-38
2021/11/03 01:40:33;;;;;;;44.97;23.83;;;;;;;7.01;88.43;99413.00;5051874;28;20465;-38
2021/11/03 01:42:58;;;;;;;46.50;24.48;;;;;;;7.31;86.71;99415.50;5054013;28;20477;-38
2021/11/03 01:45:25;;;;;;;51.00;24.85;;;;;;;7.12;87.07;99412.50;5053036;28;20025;-38
2021/11/03 01:47:55;;;;;;;44.90;24.25;;;;;;;6.96;87.00;99404.78;5054296;28;20405;-38
2021/11/03 01:50:23;;;;;;;46.25;23.52;;;;;;;6.90;87.90;99411.66;5053201;28;20049;-38
2021/11/03 01:52:52;;;;;;;45.13;24.55;;;;;;;6.93;88.30;99411.28;5053458;28;20439;-38
2021/11/03 01:55:18;;;;;;;45.90;24.15;;;;;;;6.90;87.52;99409.00;5036095;28;20025;-38
2021/11/03 01:57:47;;;;;;;47.53;25.00;;;;;;;6.90;88.27;99416.13;5052197;28;20108;-38
2021/11/03 02:00:16;;;;;;;43.05;23.50;;;;;;;6.78;87.72;99427.19;5053436;28;20366;-38
2021/11/03 02:02:42;;;;;;;50.87;24.00;;;;;;;6.75;87.56;99432.84;5053478;28;20025;-38
2021/11/03 02:05:08;;;;;;;46.28;23.23;;;;;;;6.57;88.48;99438.53;5053154;28;20064;-39
2021/11/03 02:07:34;;;;;;;49.10;24.75;;;;;;;6.68;88.20;99426.66;5052249;28;20028;-38
2021/11/03 02:09:59;;;;;;;46.75;23.58;;;;;;;6.71;88.07;99431.59;5052074;28;20037;-39
2021/11/03 02:12:27;;;;;;;47.80;24.38;;;;;;;6.64;88.35;99420.09;5052984;28;20039;-38
2021/11/03 02:14:53;;;;;;;46.22;23.77;;;;;;;6.74;87.94;99431.22;5053136;28;20021;-38
2021/11/03 02:17:18;;;;;;;47.33;24.25;;;;;;;6.63;87.85;99431.69;5051838;28;20028;-38
2021/11/03 02:19:44;;;;;;;44.97;23.52;;;;;;;6.68;87.90;99424.00;5053184;28;20068;-38
2021/11/03 02:22:16;;;;;;;41.72;22.45;;;;;;;6.59;88.26;99435.72;5051691;28;20028;-38
2021/11/03 02:25:04;;;;;;;42.00;22.98;;;;;;;6.62;88.34;99438.78;5051799;28;20036;-38
2021/11/03 02:27:30;;;;;;;40.55;22.67;;;;;;;6.50;88.34;99444.75;5051697;28;20029;-38
2021/11/03 02:29:55;;;;;;;42.35;23.05;;;;;;;6.68;88.52;99445.16;5051467;28;20021;-38
2021/11/03 02:32:26;;;;;;;44.63;23.15;;;;;;;6.65;88.31;99441.06;5052951;28;20103;-38
2021/11/03 02:34:52;;;;;;;41.90;23.65;;;;;;;6.66;88.28;99444.53;5052675;28;20098;-38
2021/11/03 02:37:26;;;;;;;45.40;23.77;;;;;;;6.64;88.29;99450.03;5052549;28;20512;-38
2021/11/03 02:39:58;;;;;;;45.63;23.77;;;;;;;6.72;88.44;99456.19;5052499;28;20028;-38
2021/11/03 02:42:24;;;;;;;43.72;23.35;;;;;;;6.58;87.99;99469.25;5051155;28;20471;-38
2021/11/03 02:44:50;;;;;;;46.00;24.20;;;;;;;6.55;88.92;99467.00;5051434;28;20021;-38
2021/11/03 02:47:15;;;;;;;42.42;23.13;;;;;;;6.50;88.59;99471.19;5051328;28;20043;-38
2021/11/03 02:49:42;;;;;;;41.70;23.42;;;;;;;6.54;88.09;99489.13;5052511;28;20032;-38
2021/11/03 02:52:20;;;;;;;44.88;23.50;;;;;;;6.54;88.11;99488.31;5051512;28;20028;-38
2021/11/03 02:54:46;;;;;;;42.55;23.55;;;;;;;6.42;88.28;99488.78;5052722;28;20074;-38
2021/11/03 02:57:11;;;;;;;43.17;22.75;;;;;;;6.38;88.43;99494.63;5052444;28;20025;-38
2021/11/03 02:59:37;;;;;;;42.35;23.15;;;;;;;6.26;88.12;99488.94;5052664;28;20028;-38
2021/11/03 03:02:04;;;;;;;40.22;22.02;;;;;;;6.29;88.14;99485.16;5052610;28;20017;-38
2021/11/03 03:04:41;;;;;;;40.13;22.52;;;;;;;6.36;87.77;99476.31;5052271;28;20021;-38
2021/11/03 03:07:08;;;;;;;41.40;21.20;;;;;;;6.16;87.72;99483.94;5050913;28;20040;-39
2021/11/03 03:09:33;;;;;;;35.50;20.83;;;;;;;6.11;88.68;99501.34;5052033;28;20028;-38
2021/11/03 03:12:01;;;;;;;34.97;20.50;;;;;;;6.02;88.48;99490.84;5052012;28;20591;-38
2021/11/03 03:14:28;;;;;;;39.72;22.15;;;;;;;6.14;88.66;99499.16;5051844;28;20036;-38
2021/11/03 03:16:54;;;;;;;40.42;21.73;;;;;;;6.25;87.76;99511.09;5051712;28;20017;-38
2021/11/03 03:19:20;;;;;;;40.55;21.73;;;;;;;6.35;87.48;99511.66;5051775;28;20436;-38
2021/11/03 03:21:45;;;;;;;40.28;22.00;;;;;;;6.25;88.86;99513.75;5051667;28;20025;-38
2021/11/03 03:24:11;;;;;;;43.45;22.05;;;;;;;6.35;87.85;99514.28;5051991;28;20020;-38
2021/11/03 03:26:37;;;;;;;42.75;22.08;;;;;;;6.26;88.65;99510.94;5051809;28;20025;-38
2021/11/03 03:29:03;;;;;;;45.90;24.42;;;;;;;6.43;88.41;99510.75;5052035;28;20071;-39
2021/11/03 03:31:29;;;;;;;46.05;23.92;;;;;;;6.44;89.47;99520.31;5050127;28;20025;-38
2021/11/03 03:33:56;;;;;;;46.38;23.23;;;;;;;6.46;89.37;99526.25;5051433;28;20056;-38
2021/11/03 03:36:22;;;;;;;48.15;23.20;;;;;;;6.60;88.44;99530.69;5051609;28;20177;-38
2021/11/03 03:38:48;;;;;;;52.20;22.42;;;;;;;6.33;89.24;99536.63;5051762;28;20523;-38
2021/11/03 03:41:13;;;;;;;43.85;22.63;;;;;;;6.51;90.21;99523.88;5051889;28;20032;-38
2021/11/03 03:43:39;;;;;;;50.88;24.17;;;;;;;6.64;88.37;99521.44;5051633;28;20464;-38
2021/11/03 03:46:04;;;;;;;46.13;23.38;;;;;;;6.46;87.55;99532.34;5051477;28;20063;-38
2021/11/03 03:48:30;;;;;;;43.42;22.27;;;;;;;6.37;88.10;99524.69;5051652;28;20025;-38
2021/11/03 03:50:55;;;;;;;90.68;45.42;;;;;;;6.23;88.68;99526.31;5051179;28;20029;-38
2021/11/03 03:53:22;;;;;;;89.93;46.10;;;;;;;6.26;89.05;99528.59;5051329;28;20043;-39
2021/11/03 03:55:48;;;;;;;89.57;44.80;;;;;;;6.18;89.59;99526.84;5051231;28;20113;-39
2021/11/03 03:58:14;;;;;;;99.07;48.58;;;;;;;6.20;89.30;99530.13;5052203;28;20432;-38
2021/11/03 04:00:39;;;;;;;92.07;42.17;;;;;;;6.21;89.58;99537.06;5049883;28;20441;-39
2021/11/03 04:03:06;;;;;;;44.85;23.27;;;;;;;6.24;89.63;99534.09;5050832;28;20051;-37
2021/11/03 04:05:32;;;;;;;45.78;22.13;;;;;;;6.15;90.12;99537.78;5049567;28;20025;-39
2021/11/03 04:07:57;;;;;;;47.53;22.88;;;;;;;6.40;89.61;99538.38;5050917;28;20033;-37
2021/11/03 04:10:23;;;;;;;46.13;22.17;;;;;;;6.37;90.26;99545.84;5050953;28;20021;-37
2021/11/03 04:12:48;;;;;;;50.72;22.52;;;;;;;6.43;90.38;99558.31;5049483;28;20465;-37
2021/11/03 04:15:14;;;;;;;52.70;24.02;;;;;;;6.48;89.51;99520.78;5050872;28;20025;-37
2021/11/03 04:17:40;;;;;;;51.05;24.30;;;;;;;6.54;90.71;99547.31;5050489;28;20041;-38
2021/11/03 04:20:06;;;;;;;52.67;23.60;;;;;;;6.54;89.79;99555.22;5050731;28;20024;-38
2021/11/03 04:22:31;;;;;;;48.53;23.90;;;;;;;6.51;89.63;99562.69;5050389;28;20063;-38
2021/11/03 04:24:57;;;;;;;43.38;22.02;;;;;;;6.32;89.63;99569.34;5050633;28;20017;-38
2021/11/03 04:27:22;;;;;;;50.10;22.92;;;;;;;6.34;90.62;99564.69;5050270;28;20024;-38
2021/11/03 04:29:48;;;;;;;45.42;22.92;;;;;;;6.41;89.46;99558.50;5050411;28;20559;-38
2021/11/03 04:32:13;;;;;;;69.43;25.95;;;;;;;6.29;90.82;99561.78;5050112;28;20364;-38
2021/11/03 04:34:39;;;;;;;48.65;22.45;;;;;;;6.34;89.55;99569.97;5050339;28;20048;-37
2021/11/03 04:37:04;;;;;;;47.05;22.75;;;;;;;6.32;89.85;99562.25;5050475;28;20033;-37
2021/11/03 04:39:30;;;;;;;51.30;22.80;;;;;;;6.33;90.23;99569.16;5050314;28;20040;-37
2021/11/03 04:41:55;;;;;;;53.97;23.85;;;;;;;6.39;90.77;99571.06;5050158;28;20043;-37
2021/11/03 04:44:21;;;;;;;51.65;23.35;;;;;;;6.45;90.17;99578.31;5042236;28;20104;-37
2021/11/03 04:46:46;;;;;;;49.08;23.33;;;;;;;6.42;90.31;99585.78;5034389;28;20036;-37
2021/11/03 04:49:12;;;;;;;54.83;27.08;;;;;;;6.37;90.93;99582.84;5030450;28;20456;-37
2021/11/03 04:51:37;;;;;;;55.67;24.63;;;;;;;6.51;90.74;99595.28;5030712;28;20396;-38
2021/11/03 04:54:03;;;;;;;49.65;23.70;;;;;;;6.50;91.30;99585.69;5030918;28;20549;-38
2021/11/03 04:56:29;;;;;;;50.47;22.70;;;;;;;6.49;92.01;99597.25;5030297;28;20104;-38
2021/11/03 04:58:54;;;;;;;73.10;26.05;;;;;;;6.74;91.21;99595.19;5029932;28;20064;-38
2021/11/03 05:01:22;;;;;;;74.57;26.20;;;;;;;6.76;91.69;99587.06;5030413;28;20021;-38
2021/11/03 05:03:49;;;;;;;53.80;25.63;;;;;;;6.88;91.07;99598.84;5028981;28;20104;-38
2021/11/03 05:06:16;;;;;;;73.05;26.15;;;;;;;6.86;91.56;99592.91;5029889;28;20018;-38
2021/11/03 05:08:42;;;;;;;60.20;25.27;;;;;;;7.03;90.38;99590.91;5033049;28;20112;-39
2021/11/03 05:11:08;;;;;;;54.33;25.10;;;;;;;7.00;91.14;99601.84;5050274;28;20119;-39
2021/11/03 05:13:33;;;;;;;76.05;25.08;;;;;;;6.99;90.76;99608.97;5049919;28;20028;-39
2021/11/03 05:15:59;;;;;;;45.55;21.92;;;;;;;6.92;90.53;99610.69;5052740;28;20079;-39
2021/11/03 05:18:25;;;;;;;46.13;22.83;;;;;;;6.81;92.09;99621.72;5053042;28;20044;-39
2021/11/03 05:20:50;;;;;;;52.08;21.63;;;;;;;6.73;91.75;99613.88;5054019;28;20020;-39
2021/11/03 05:23:16;;;;;;;57.38;22.77;;;;;;;6.86;91.59;99614.06;5053075;28;20040;-38
2021/11/03 05:25:41;;;;;;;58.15;19.33;;;;;;;7.01;90.50;99624.66;5049440;28;20487;-38
2021/11/03 05:28:07;;;;;;;74.95;19.25;;;;;;;7.02;90.51;99629.75;5042676;28;20448;-38
2021/11/03 05:30:32;;;;;;;62.50;19.48;;;;;;;7.30;89.77;99623.81;5038725;28;20378;-38
2021/11/03 05:32:58;;;;;;;50.00;19.55;;;;;;;7.33;87.49;99618.16;5035422;28;20147;-38
2021/11/03 05:35:24;;;;;;;64.93;21.20;;;;;;;7.15;89.26;99623.81;5053895;28;20036;-38
2021/11/03 05:37:49;;;;;;;76.97;21.00;;;;;;;6.83;89.06;99628.50;5053894;28;20227;-38
2021/11/03 05:40:19;;;;;;;46.83;21.95;;;;;;;6.91;90.56;99632.88;5053774;28;20025;-39
2021/11/03 05:42:45;;;;;;;56.22;20.27;;;;;;;6.86;90.46;99640.53;5053172;28;20029;-38
2021/11/03 05:45:10;;;;;;;49.58;22.00;;;;;;;7.08;89.96;99646.72;5052662;28;20083;-39
2021/11/03 05:47:36;;;;;;;56.03;20.90;;;;;;;7.07;90.88;99652.22;5052741;28;20048;-39
2021/11/03 05:50:02;;;;;;;68.13;21.90;;;;;;;7.07;90.01;99658.31;5051455;28;20398;-40
2021/11/03 05:52:28;;;;;;;70.32;21.25;;;;;;;7.01;90.45;99673.09;5052472;28;20070;-38
2021/11/03 05:54:53;;;;;;;66.70;21.92;;;;;;;7.02;90.45;99669.44;5052671;28;20439;-38
2021/11/03 05:57:30;;;;;;;71.53;22.00;;;;;;;7.12;90.85;99673.63;5050724;28;20443;-38
2021/11/03 05:59:56;;;;;;;60.08;20.98;;;;;;;7.34;89.52;99671.91;5050044;28;20333;-38
2021/11/03 06:02:21;;;;;;;60.13;20.85;;;;;;;7.24;89.86;99670.34;5051969;28;20376;-38
2021/11/03 06:04:47;;;;;;;76.05;21.30;;;;;;;7.30;90.15;99671.44;5052456;28;20450;-38
2021/11/03 06:07:13;;;;;;;47.03;21.55;;;;;;;7.27;91.18;99671.81;5052585;28;20208;-38
2021/11/03 06:09:39;;;;;;;89.80;22.38;;;;;;;7.30;92.34;99689.16;5051624;28;20029;-39
2021/11/03 06:12:05;;;;;;;70.90;21.02;;;;;;;7.20;91.13;99686.81;5051440;28;20021;-39
2021/11/03 06:14:30;;;;;;;87.75;31.60;;;;;;;7.51;91.16;99699.00;5052852;28;20021;-39
2021/11/03 06:16:56;;;;;;;80.57;38.22;;;;;;;7.81;90.68;99697.94;5052721;28;20100;-38
2021/11/03 06:19:21;;;;;;;66.35;25.48;;;;;;;8.05;88.20;99711.84;5053129;28;20051;-38
2021/11/03 06:21:47;;;;;;;83.72;26.00;;;;;;;7.89;87.27;99722.69;5052797;28;20021;-38
2021/11/03 06:24:12;;;;;;;106.93;48.22;;;;;;;8.07;88.49;99730.22;5052111;28;20073;-39
2021/11/03 06:26:37;;;;;;;58.75;24.67;;;;;;;8.19;87.68;99739.34;5052261;28;20021;-39
2021/11/03 06:29:03;;;;;;;53.13;23.67;;;;;;;8.22;88.18;99745.09;5051940;28;20025;-40
2021/11/03 06:31:28;;;;;;;49.80;23.13;;;;;;;8.29;87.98;99753.09;5050777;28;20160;-38
2021/11/03 06:33:54;;;;;;;65.55;34.35;;;;;;;8.60;87.20;99750.19;5051766;28;20044;-39
2021/11/03 06:36:20;;;;;;;53.72;24.00;;;;;;;8.64;86.02;99747.94;5050473;28;20029;-39
2021/11/03 06:38:45;;;;;;;44.83;21.67;;;;;;;8.61;86.27;99745.69;5052310;28;20032;-38
2021/11/03 06:41:12;;;;;;;52.10;23.25;;;;;;;8.85;85.30;99746.28;5052292;28;20055;-39
2021/11/03 06:43:38;;;;;;;56.88;22.17;;;;;;;8.68;86.89;99751.03;5052032;28;20032;-37
2021/11/03 06:46:04;;;;;;;57.50;27.95;;;;;;;8.67;87.60;99760.84;5051205;28;20051;-38
2021/11/03 06:48:29;;;;;;;54.70;28.35;;;;;;;8.79;87.64;99766.44;5051434;28;20028;-38
2021/11/03 06:50:55;;;;;;;64.78;27.95;;;;;;;8.82;87.33;99755.47;5051619;28;20468;-38
2021/11/03 06:53:25;;;;;;;59.35;23.42;;;;;;;8.75;87.05;99758.03;5051692;28;20025;-38
2021/11/03 06:55:51;;;;;;;51.97;22.25;;;;;;;8.45;87.78;99756.53;5051466;28;20021;-38
2021/11/03 06:58:17;;;;;;;45.78;22.50;;;;;;;8.46;88.29;99766.97;5062008;28;20085;-39
2021/11/03 07:00:43;;;;;;;61.60;27.48;;;;;;;8.67;87.46;99768.78;5059722;28;20441;-38
2021/11/03 07:03:09;;;;;;;50.97;25.85;;;;;;;8.72;86.20;99742.53;5066479;28;20507;-38
2021/11/03 07:05:36;;;;;;;53.10;18.25;;;;;;;8.91;86.37;99772.06;5054634;28;20025;-38
2021/11/03 07:08:02;;;;;;;40.75;16.30;;;;;;;9.14;84.19;99779.81;5064245;28;20017;-37
2021/11/03 07:10:38;;;;;;;52.95;19.10;;;;;;;8.93;84.37;99768.22;5060248;28;20088;-37
2021/11/03 07:13:04;;;;;;;120.15;29.77;;;;;;;8.51;84.47;99771.69;5056736;28;20053;-37
2021/11/03 07:15:29;;;;;;;79.50;33.92;;;;;;;8.76;84.88;99782.75;5066746;28;20020;-38
2021/11/03 07:17:55;;;;;;;82.47;36.10;;;;;;;8.63;85.56;99783.47;5056350;28;20061;-37
2021/11/03 07:20:21;;;;;;;98.45;34.97;;;;;;;8.44;85.67;99778.78;5062796;28;20404;-38
2021/11/03 07:22:46;;;;;;;81.55;37.65;;;;;;;8.21;87.24;99771.78;5050121;28;20020;-37
2021/11/03 07:25:13;;;;;;;111.03;40.53;;;;;;;8.21;87.42;99774.44;5066805;28;20028;-37
2021/11/03 07:27:39;;;;;;;104.95;37.85;;;;;;;8.43;87.34;99777.94;5054390;28;20196;-39
2021/11/03 07:30:05;;;;;;;116.03;34.15;;;;;;;8.17;87.11;99765.22;5064824;28;20479;-38
2021/11/03 07:32:31;;;;;;;115.40;34.63;;;;;;;8.22;87.96;99768.09;5060391;28;20040;-39
2021/11/03 07:34:56;;;;;;;78.97;29.30;;;;;;;8.26;88.98;99772.03;5057318;28;20033;-38
2021/11/03 07:37:21;;;;;;;85.57;28.60;;;;;;;8.35;88.13;99783.34;5067098;28;20040;-39
2021/11/03 07:39:47;;;;;;;79.45;28.92;;;;;;;8.25;88.71;99781.00;5054733;28;20025;-39
2021/11/03 07:42:12;;;;;;;67.20;26.42;;;;;;;8.35;88.40;99775.38;5063568;28;20333;-38
2021/11/03 07:44:38;;;;;;;71.95;26.55;;;;;;;8.59;87.99;99751.19;5061458;28;20496;-38
2021/11/03 07:47:03;;;;;;;82.32;27.25;;;;;;;8.49;87.78;99761.31;5055998;28;20067;-39
2021/11/03 07:49:29;;;;;;;56.85;24.17;;;;;;;8.39;87.73;99771.34;5065715;28;20031;-38
2021/11/03 07:51:55;;;;;;;65.10;22.88;;;;;;;8.72;87.20;99770.88;5055320;28;20060;-39
2021/11/03 07:54:20;;;;;;;74.70;22.05;;;;;;;8.71;86.82;99785.97;5062256;28;20373;-39
2021/11/03 07:56:46;;;;;;;99.63;21.70;;;;;;;8.45;86.84;99783.88;5062357;28;20454;-39
2021/11/03 07:59:11;;;;;;;90.65;20.38;;;;;;;8.36;86.87;99791.13;5054560;28;20037;-39
2021/11/03 08:01:37;;;;;;;37.40;18.10;;;;;;;8.27;87.58;99794.06;5048750;28;20024;-39
2021/11/03 08:04:03;;;;;;;38.08;17.05;;;;;;;8.39;87.08;99792.56;5056006;28;20023;-39
2021/11/03 08:06:28;;;;;;;33.92;16.67;;;;;;;8.60;86.22;99795.28;5051089;28;20532;-39
2021/11/03 08:11:27;;;;;;;53.90;16.58;;;;;;;8.77;85.49;99805.63;5049593;28;20445;-39
2021/11/03 08:13:53;;;;;;;90.85;16.27;;;;;;;8.68;85.18;99799.63;5048798;28;20017;-39
2021/11/03 08:16:18;;;;;;;26.42;14.82;;;;;;;8.76;84.46;99799.50;5048985;28;20082;-39
2021/11/03 08:18:43;;;;;;;28.48;14.38;;;;;;;8.69;85.65;99808.41;5048270;28;20028;-37
2021/11/03 08:21:10;;;;;;;50.13;16.30;;;;;;;8.73;85.55;99815.78;5048287;28;20075;-38
2021/11/03 08:23:36;;;;;;;33.55;15.77;;;;;;;8.75;84.87;99818.25;5048262;28;20021;-37
2021/11/03 08:26:01;;;;;;;36.70;16.10;;;;;;;8.69;86.75;99816.38;5049256;28;20483;-37
2021/11/03 08:28:26;;;;;;;30.10;16.33;;;;;;;8.69;86.99;99814.53;5049683;28;20028;-37
2021/11/03 08:30:53;;;;;;;46.55;16.63;;;;;;;8.91;85.98;99803.91;5049621;28;20032;-36
2021/11/03 08:33:46;;;;;;;28.77;16.58;;;;;;;9.05;86.52;99810.97;5030642;28;20429;-38
2021/11/03 08:36:13;;;;;;;28.45;16.23;;;;;;;9.09;86.27;99816.72;5048116;28;20041;-37
2021/11/03 08:38:38;;;;;;;28.52;16.73;;;;;;;9.19;86.29;99814.53;5047810;28;20067;-37
2021/11/03 08:41:04;;;;;;;29.63;17.58;;;;;;;9.30;85.83;99816.69;5049927;28;20492;-37
2021/11/03 08:43:30;;;;;;;32.75;17.98;;;;;;;9.55;84.97;99810.91;5049711;28;20480;-37
2021/11/03 08:45:55;;;;;;;34.25;17.70;;;;;;;9.87;82.56;99812.13;5049794;28;20032;-38
2021/11/03 08:48:24;;;;;;;34.20;18.20;;;;;;;10.14;81.24;99817.56;5049536;28;20447;-38
2021/11/03 08:50:50;;;;;;;33.47;17.38;;;;;;;10.07;82.86;99819.34;5048919;28;20068;-37
2021/11/03 08:53:17;;;;;;;31.80;17.42;;;;;;;10.10;82.28;99813.66;5049674;28;20514;-37
2021/11/03 08:55:43;;;;;;;31.05;18.10;;;;;;;10.20;82.07;99819.41;5049336;28;20107;-38
2021/11/03 08:58:10;;;;;;;31.60;18.38;;;;;;;10.41;81.63;99810.50;5049697;28;20025;-38
2021/11/03 09:00:36;;;;;;;35.58;18.63;;;;;;;10.41;81.99;99823.00;5049713;28;20051;-38
2021/11/03 09:03:01;;;;;;;34.63;19.10;;;;;;;10.29;82.37;99820.88;5049571;28;20159;-38
2021/11/03 09:05:27;;;;;;;38.00;20.52;;;;;;;10.38;82.61;99805.59;5049572;28;20033;-38
2021/11/03 09:07:53;;;;;;;34.97;20.88;;;;;;;10.41;82.61;99823.00;5048045;28;20028;-38
2021/11/03 09:10:21;;;;;;;38.95;20.55;;;;;;;10.44;82.81;99815.44;5049356;28;20545;-38
2021/11/03 09:12:48;;;;;;;41.30;22.98;;;;;;;10.64;83.10;99812.84;5048061;28;20477;-38
2021/11/03 09:15:13;;;;;;;42.53;23.08;;;;;;;10.65;82.21;99784.38;5049359;28;20079;-38
2021/11/03 09:17:39;;;;;;;40.47;22.92;;;;;;;10.92;82.53;99807.31;5049818;28;20037;-38
2021/11/03 09:20:06;;;;;;;41.65;22.75;;;;;;;11.02;82.31;99803.44;5049315;28;20025;-39
2021/11/03 09:22:33;;;;;;;43.00;23.13;;;;;;;11.07;81.93;99801.78;5049314;28;20500;-39
2021/11/03 09:24:58;;;;;;;41.28;23.48;;;;;;;11.06;82.90;99789.53;5049118;28;20549;-37
2021/11/03 09:27:24;;;;;;;39.13;23.55;;;;;;;11.20;80.95;99779.66;5049394;28;20013;-37
2021/11/03 09:29:50;;;;;;;39.88;23.05;;;;;;;11.46;81.35;99789.47;5048043;28;20029;-39
2021/11/03 09:32:18;;;;;;;40.95;23.25;;;;;;;11.58;80.80;99792.31;5049100;28;20013;-39
2021/11/03 09:34:48;;;;;;;40.67;23.02;;;;;;;11.76;80.31;99782.81;5048889;28;20562;-39
2021/11/03 09:37:16;;;;;;;44.97;24.85;;;;;;;11.62;79.43;99777.53;5049145;28;20056;-39
2021/11/03 09:39:42;;;;;;;47.72;25.48;;;;;;;11.63;80.63;99779.19;5031402;28;20077;-39
2021/11/03 09:42:10;;;;;;;53.08;26.30;;;;;;;11.89;79.21;99786.28;5048869;28;20028;-39
2021/11/03 09:44:36;;;;;;;49.85;27.13;;;;;;;11.88;80.18;99808.63;5047549;28;20420;-38
2021/11/03 09:47:14;;;;;;;50.97;26.75;;;;;;;12.02;81.68;99806.75;5049026;28;20481;-39
2021/11/03 09:49:47;;;;;;;47.13;26.70;;;;;;;12.46;80.16;99801.63;5049207;28;20413;-37
2021/11/03 09:52:15;;;;;;;44.05;25.30;;;;;;;12.83;76.27;99802.63;5047881;28;20075;-38
2021/11/03 09:54:42;;;;;;;45.58;26.35;;;;;;;13.00;74.59;99788.72;5048191;28;20025;-38
2021/11/03 09:57:07;;;;;;;43.65;25.00;;;;;;;12.99;75.38;99785.25;5047225;28;20077;-38
2021/11/03 09:59:50;;;;;;;44.28;25.10;;;;;;;13.08;74.58;99781.25;5048914;28;20021;-38
2021/11/03 10:02:19;;;;;;;45.30;25.25;;;;;;;13.31;73.93;99777.19;5051385;28;20562;-38
2021/11/03 10:05:14;;;;;;;49.33;26.48;;;;;;;13.41;74.29;99782.84;5052180;28;20063;-38
2021/11/03 10:07:50;;;;;;;43.63;24.85;;;;;;;13.25;75.12;99772.66;5043487;28;20124;-38
2021/11/03 10:10:19;;;;;;;40.83;23.73;;;;;;;13.42;75.15;99775.63;5051204;28;20032;-38
2021/11/03 10:12:44;;;;;;;37.50;21.83;;;;;;;13.54;73.23;99771.19;5052679;28;20031;-38
2021/11/03 10:15:10;;;;;;;34.83;19.63;;;;;;;13.73;72.52;99753.28;5052216;28;20545;-38
2021/11/03 10:17:35;;;;;;;35.72;20.70;;;;;;;13.95;72.07;99748.28;5052022;28;20073;-38
2021/11/03 10:20:07;;;;;;;34.42;21.30;;;;;;;14.02;73.46;99746.34;5051825;28;20025;-38
2021/11/03 10:22:35;;;;;;;35.10;20.35;;;;;;;14.16;73.17;99740.81;5035417;28;20024;-38
2021/11/03 10:25:11;;;;;;;31.98;19.02;;;;;;;14.36;71.32;99737.88;5052493;28;20029;-38
2021/11/03 10:27:45;;;;;;;28.17;16.52;;;;;;;14.25;70.86;99723.38;5051376;28;20021;-38
2021/11/03 10:30:31;;;;;;;21.55;13.98;;;;;;;14.49;68.59;99718.94;5051765;28;20027;-38
2021/11/03 10:32:57;;;;;;;26.02;15.07;;;;;;;14.83;69.36;99713.84;5052885;28;20056;-38
2021/11/03 10:35:47;;;;;;;29.35;15.68;;;;;;;15.00;69.02;99719.34;5051179;28;20471;-38
2021/11/03 10:38:14;;;;;;;27.52;15.20;;;;;;;15.14;68.13;99707.34;5051285;28;20033;-38
2021/11/03 10:40:44;;;;;;;25.90;15.63;;;;;;;15.16;68.14;99710.59;5052489;28;20025;-38
2021/11/03 10:43:40;;;;;;;27.30;17.23;;;;;;;15.53;67.83;99704.94;5052442;28;20096;-40
2021/11/03 10:46:20;;;;;;;27.02;17.48;;;;;;;15.51;67.91;99704.38;5043599;28;20108;-38
2021/11/03 10:48:51;;;;;;;22.50;15.20;;;;;;;15.57;66.99;99695.41;5041285;28;20099;-38
2021/11/03 10:51:38;;;;;;;28.83;16.52;;;;;;;15.82;68.97;99700.47;5051986;28;20483;-38
2021/11/03 10:54:09;;;;;;;27.67;15.55;;;;;;;15.93;69.23;99701.47;5051810;28;20025;-38
2021/11/03 10:56:46;;;;;;;22.52;15.15;;;;;;;15.90;68.62;99691.22;5052022;28;20104;-38
2021/11/03 10:59:17;;;;;;;20.45;14.10;;;;;;;15.77;68.16;99694.19;5032034;28;20017;-38
2021/11/03 11:01:46;;;;;;;21.17;12.95;;;;;;;15.77;67.97;99697.69;5051739;28;20032;-39
2021/11/03 11:04:21;;;;;;;18.42;12.55;;;;;;;16.16;65.95;99692.53;5052602;28;20028;-38
2021/11/03 11:06:49;;;;;;;20.60;12.65;;;;;;;15.88;67.63;99676.41;5052327;28;20029;-39
2021/11/03 11:09:20;;;;;;;17.65;12.27;;;;;;;15.96;67.00;99689.47;5051243;28;20017;-38
2021/11/03 11:11:47;;;;;;;17.00;11.70;;;;;;;15.97;66.97;99681.19;5051094;28;20493;-39
2021/11/03 11:14:19;;;;;;;18.65;11.80;;;;;;;16.31;66.32;99688.47;5033202;28;20078;-38
2021/11/03 11:17:02;;;;;;;17.08;11.73;;;;;;;16.15;65.57;99684.69;5051361;28;20017;-39
2021/11/03 11:19:41;;;;;;;17.13;11.43;;;;;;;15.96;66.02;99684.09;5050533;28;20021;-38
2021/11/03 11:22:25;;;;;;;18.55;11.25;;;;;;;15.98;66.56;99672.06;5049805;28;20036;-38
2021/11/03 11:24:56;;;;;;;19.33;11.63;;;;;;;16.54;65.34;99676.75;5051209;28;20100;-38
2021/11/03 11:27:45;;;;;;;18.00;12.40;;;;;;;16.88;64.84;99674.06;5049763;28;20035;-39